Time;durP1;ratioP1;P1;durP2;ratioP2;P2;SDS_P1;SDS_P2;PMS_P1;PMS_P2;Temp;Humidity;BMP_temperature;BMP_pressure;BME280_temperature;BME280_humidity;BME280_pressure;Samples;Min_cycle;Max_cycle;Signal;HPM_P1;HPM_P2
2023/07/29 00:01:18;;;;;;;3.58;2.55;;;;;;;18.21;49.24;94666.09;5097189;28;20032;-76
2023/07/29 00:03:43;;;;;;;3.50;2.53;;;;;;;18.25;48.99;94667.38;5092145;28;20012;-77
2023/07/29 00:06:09;;;;;;;3.28;2.42;;;;;;;18.12;49.27;94663.72;5092000;28;20486;-76
2023/07/29 00:08:34;;;;;;;3.95;2.88;;;;;;;18.00;49.67;94664.13;5090461;28;20059;-76
2023/07/29 00:11:00;;;;;;;5.68;2.65;;;;;;;17.89;50.09;94664.53;5094711;28;20024;-77
2023/07/29 00:13:25;;;;;;;4.25;2.83;;;;;;;18.00;50.29;94668.56;5092327;28;20105;-76
2023/07/29 00:15:53;;;;;;;3.22;2.58;;;;;;;17.98;50.19;94667.94;5099323;28;20027;-77
2023/07/29 00:18:19;;;;;;;5.00;3.10;;;;;;;17.89;49.73;94656.66;5086023;28;20039;-77
2023/07/29 00:20:44;;;;;;;5.45;3.22;;;;;;;18.00;49.57;94664.13;5097412;28;20035;-76
2023/07/29 00:23:09;;;;;;;4.05;2.70;;;;;;;18.07;50.20;94667.66;5106035;28;20093;-76
2023/07/29 00:25:35;;;;;;;6.97;2.80;;;;;;;17.95;50.45;94665.66;5092926;28;20032;-76
2023/07/29 00:28:00;;;;;;;4.85;3.03;;;;;;;17.94;50.63;94653.50;5082160;28;20035;-76
2023/07/29 00:30:26;;;;;;;3.42;2.50;;;;;;;17.74;50.99;94656.56;5044839;28;20033;-76
2023/07/29 00:32:51;;;;;;;4.25;2.85;;;;;;;17.85;50.71;94658.81;5084983;28;20029;-76
2023/07/29 00:35:17;;;;;;;2.95;2.60;;;;;;;17.73;50.64;94675.13;5078349;28;20494;-76
2023/07/29 00:37:42;;;;;;;3.03;2.42;;;;;;;17.78;49.73;94667.56;5105292;28;20032;-76
2023/07/29 00:40:16;;;;;;;5.28;2.88;;;;;;;17.58;50.96;94677.69;5054224;28;20028;-76
2023/07/29 00:42:42;;;;;;;4.15;2.40;;;;;;;17.39;51.76;94674.50;5102283;28;20063;-76
2023/07/29 00:45:09;;;;;;;3.55;2.60;;;;;;;17.42;51.35;94673.34;5092712;28;20040;-76
2023/07/29 00:47:34;;;;;;;3.60;2.60;;;;;;;17.35;51.30;94660.06;5065490;28;20024;-76
2023/07/29 00:49:59;;;;;;;3.72;2.80;;;;;;;17.49;51.65;94668.22;5074741;28;20508;-76
2023/07/29 00:52:25;;;;;;;4.93;2.60;;;;;;;17.30;51.16;94651.91;5099036;28;20550;-76
2023/07/29 00:54:50;;;;;;;3.47;2.38;;;;;;;17.38;51.21;94654.50;5091558;28;20043;-76
2023/07/29 00:57:16;;;;;;;3.15;2.35;;;;;;;17.49;51.10;94649.81;5076379;28;20023;-76
2023/07/29 00:59:41;;;;;;;3.85;2.22;;;;;;;17.56;51.04;94659.47;5083210;28;20028;-77
2023/07/29 01:02:06;;;;;;;5.20;2.47;;;;;;;17.35;50.80;94631.19;5094940;28;20390;-76
2023/07/29 01:04:32;;;;;;;4.05;2.42;;;;;;;17.43;50.78;94654.78;5092314;28;20036;-76
2023/07/29 01:07:06;;;;;;;3.25;2.33;;;;;;;17.37;50.90;94652.84;5091996;28;20442;-76
2023/07/29 01:10:02;;;;;;;3.10;2.42;;;;;;;17.37;51.02;94650.22;5093624;28;20059;-76
2023/07/29 01:12:51;;;;;;;3.47;2.58;;;;;;;17.33;50.91;94648.94;5079524;28;20598;-76
2023/07/29 01:15:17;;;;;;;3.63;2.65;;;;;;;17.24;51.17;94649.13;5090683;28;20028;-76
2023/07/29 01:17:46;;;;;;;2.83;2.30;;;;;;;17.18;51.62;94646.22;5091191;28;20168;-76
2023/07/29 01:20:14;;;;;;;3.17;2.50;;;;;;;17.25;51.41;94648.97;5090124;28;20040;-76
2023/07/29 01:22:39;;;;;;;3.85;2.60;;;;;;;17.17;51.53;94639.34;5093469;28;20035;-76
2023/07/29 01:25:05;;;;;;;3.50;2.40;;;;;;;17.23;51.53;94645.69;5057593;28;20414;-76
2023/07/29 01:27:30;;;;;;;3.50;2.40;;;;;;;17.22;51.77;94649.31;5088556;28;20031;-76
2023/07/29 01:29:56;;;;;;;4.70;2.60;;;;;;;17.11;51.98;94639.22;5061245;28;20040;-76
2023/07/29 01:32:33;;;;;;;3.53;2.60;;;;;;;17.18;52.15;94659.31;5070069;28;20032;-75
2023/07/29 01:35:20;;;;;;;3.25;2.65;;;;;;;17.03;52.56;94647.94;5107679;28;20024;-76
2023/07/29 01:37:49;;;;;;;4.85;2.45;;;;;;;17.10;52.43;94655.94;5090675;28;20589;-76
2023/07/29 01:40:15;;;;;;;3.38;2.70;;;;;;;17.15;52.10;94654.44;5077064;28;20070;-76
2023/07/29 01:42:40;;;;;;;4.05;2.78;;;;;;;17.13;52.17;94652.97;5094077;28;20031;-76
2023/07/29 01:45:06;;;;;;;3.90;2.80;;;;;;;17.16;51.88;94655.25;5091659;28;20023;-76
2023/07/29 01:47:31;;;;;;;3.35;2.65;;;;;;;17.03;52.56;94655.00;5090150;28;20519;-76
2023/07/29 01:49:57;;;;;;;4.22;2.72;;;;;;;17.17;52.21;94656.91;5060523;28;20028;-75
2023/07/29 01:52:22;;;;;;;3.65;2.58;;;;;;;17.11;52.35;94653.16;5090203;28;20028;-76
2023/07/29 01:54:48;;;;;;;3.58;2.78;;;;;;;16.89;52.65;94631.09;5095286;28;20501;-76
2023/07/29 01:57:13;;;;;;;4.13;2.58;;;;;;;16.87;52.57;94627.81;5089899;28;20035;-76
2023/07/29 01:59:39;;;;;;;3.80;2.70;;;;;;;17.14;52.47;94659.84;5098823;28;20035;-76
2023/07/29 02:02:04;;;;;;;3.42;2.80;;;;;;;17.02;52.86;94658.59;5056709;28;20105;-76
2023/07/29 02:04:29;;;;;;;4.03;2.95;;;;;;;17.13;52.67;94652.97;5091100;28;20036;-76
2023/07/29 02:06:55;;;;;;;2.97;2.55;;;;;;;17.12;52.50;94652.16;5069496;28;20421;-76
2023/07/29 02:09:20;;;;;;;3.33;2.58;;;;;;;17.16;52.50;94663.94;5085821;28;20047;-75
2023/07/29 02:11:46;;;;;;;5.50;3.05;;;;;;;17.17;52.55;94659.53;5093175;28;20036;-76
2023/07/29 02:14:11;;;;;;;3.58;2.70;;;;;;;17.22;52.48;94659.81;5091542;28;20497;-76
2023/07/29 02:16:37;;;;;;;3.70;2.90;;;;;;;17.24;52.34;94664.88;5077148;28;20032;-76
2023/07/29 02:19:03;;;;;;;3.35;2.75;;;;;;;17.26;52.59;94666.34;5069640;28;20024;-75
2023/07/29 02:21:28;;;;;;;4.47;2.78;;;;;;;17.35;52.30;94662.69;5074934;28;20040;-75
2023/07/29 02:23:53;;;;;;;4.32;2.80;;;;;;;17.38;52.22;94670.25;5100532;28;20529;-76
2023/07/29 02:26:19;;;;;;;2.97;2.65;;;;;;;17.30;52.56;94679.94;5093550;28;20089;-76
2023/07/29 02:28:44;;;;;;;3.97;3.00;;;;;;;17.09;53.04;94672.66;5089414;28;20040;-76
2023/07/29 02:31:17;;;;;;;4.32;3.03;;;;;;;16.90;53.58;94672.06;5094572;28;20206;-76
2023/07/29 02:33:43;;;;;;;4.18;2.80;;;;;;;16.86;53.87;94672.59;5090837;28;20051;-76
2023/07/29 02:36:08;;;;;;;3.35;2.65;;;;;;;16.80;54.04;94657.50;5078040;28;20028;-76
2023/07/29 02:38:34;;;;;;;3.95;2.60;;;;;;;16.77;54.39;94661.31;5091178;28;20028;-77
2023/07/29 02:40:59;;;;;;;3.63;2.90;;;;;;;16.69;54.48;94656.88;5089259;28;20426;-76
2023/07/29 02:43:25;;;;;;;3.70;2.88;;;;;;;16.68;54.85;94657.03;5089763;28;20413;-76
2023/07/29 02:45:50;;;;;;;3.40;2.80;;;;;;;16.58;55.34;94664.28;5090985;28;20039;-76
2023/07/29 02:48:15;;;;;;;3.97;3.00;;;;;;;16.59;54.99;94651.00;5055869;28;20028;-76
2023/07/29 02:50:41;;;;;;;3.72;2.92;;;;;;;16.65;55.00;94652.94;5050073;28;20044;-76
2023/07/29 02:53:06;;;;;;;4.28;2.92;;;;;;;16.59;55.23;94651.00;5083730;28;20028;-76
2023/07/29 02:55:32;;;;;;;4.13;2.88;;;;;;;16.66;54.82;94656.38;5094480;28;20460;-72
2023/07/29 02:57:57;;;;;;;5.18;2.85;;;;;;;16.68;54.74;94649.16;5097740;28;20017;-77
2023/07/29 03:00:22;;;;;;;5.13;3.13;;;;;;;16.66;55.09;94661.63;5072016;28;20571;-77
2023/07/29 03:02:49;;;;;;;4.03;3.35;;;;;;;16.54;55.50;94659.34;5108956;28;20417;-77
2023/07/29 03:05:15;;;;;;;4.43;3.10;;;;;;;16.54;55.49;94661.16;5078462;28;20254;-76
2023/07/29 03:07:40;;;;;;;4.60;3.13;;;;;;;16.52;55.50;94655.28;5104592;28;20086;-77
2023/07/29 03:10:06;;;;;;;4.45;3.10;;;;;;;16.47;55.28;94645.28;5111148;28;20040;-76
2023/07/29 03:12:31;;;;;;;3.92;3.17;;;;;;;16.53;55.63;94662.97;5100878;28;20107;-77
2023/07/29 03:14:57;;;;;;;4.80;2.95;;;;;;;16.39;55.95;94671.50;5089372;28;20036;-77
2023/07/29 03:17:22;;;;;;;3.50;2.78;;;;;;;16.38;56.21;94680.38;5099293;28;20034;-77
2023/07/29 03:19:47;;;;;;;4.80;3.13;;;;;;;16.26;56.22;94666.75;5107036;28;20574;-77
2023/07/29 03:22:13;;;;;;;4.00;2.72;;;;;;;16.53;55.73;94681.31;5095379;28;20088;-77
2023/07/29 03:24:38;;;;;;;4.50;2.88;;;;;;;16.51;55.65;94685.09;5086590;28;20028;-77
2023/07/29 03:27:05;;;;;;;4.85;2.70;;;;;;;16.52;55.46;94684.13;5094846;28;20073;-77
2023/07/29 03:29:30;;;;;;;3.40;2.90;;;;;;;16.54;55.73;94688.19;5110997;28;20050;-77
2023/07/29 03:31:56;;;;;;;4.00;2.85;;;;;;;16.54;56.11;94676.88;5110809;28;20481;-76
2023/07/29 03:34:21;;;;;;;4.50;3.22;;;;;;;16.63;55.71;94680.31;5091692;28;20028;-76
2023/07/29 03:36:47;;;;;;;5.78;3.22;;;;;;;16.68;55.66;94686.69;5108635;28;20549;-76
2023/07/29 03:39:14;;;;;;;3.20;2.78;;;;;;;16.18;57.50;94679.88;5110874;28;20032;-77
2023/07/29 03:41:39;;;;;;;4.32;3.08;;;;;;;16.62;55.81;94691.78;5092704;28;20035;-76
2023/07/29 03:44:04;;;;;;;4.55;2.90;;;;;;;16.56;55.96;94689.84;5113293;28;20031;-77
2023/07/29 03:46:31;;;;;;;4.93;3.85;;;;;;;16.44;56.31;94689.38;5113339;28;20417;-76
2023/07/29 03:48:56;;;;;;;4.55;3.28;;;;;;;16.32;56.91;94686.25;5095238;28;20032;-76
2023/07/29 03:51:22;;;;;;;4.13;2.80;;;;;;;16.41;56.71;94687.06;5112708;28;20036;-76
2023/07/29 03:53:48;;;;;;;4.55;2.95;;;;;;;16.40;57.16;94691.50;5113386;28;20050;-76
2023/07/29 03:56:13;;;;;;;3.22;2.70;;;;;;;16.60;56.80;94688.50;5096176;28;20497;-76
2023/07/29 03:58:38;;;;;;;5.45;2.75;;;;;;;16.40;57.17;94686.25;5113063;28;20026;-77
2023/07/29 04:01:04;;;;;;;4.20;2.70;;;;;;;16.52;57.30;94690.19;5114199;28;20082;-76
2023/07/29 04:03:29;;;;;;;4.03;3.03;;;;;;;16.55;56.72;94686.41;5114615;28;20141;-76
2023/07/29 04:05:55;;;;;;;4.47;3.20;;;;;;;16.30;57.48;94693.47;5114206;28;20036;-76
2023/07/29 04:08:20;;;;;;;4.90;3.47;;;;;;;16.43;57.14;94698.22;5078848;28;20519;-76
2023/07/29 04:10:46;;;;;;;5.85;3.17;;;;;;;16.45;57.12;94697.06;5096121;28;20028;-76
2023/07/29 04:13:11;;;;;;;5.22;3.20;;;;;;;16.63;56.62;94688.19;5112984;28;20038;-77
2023/07/29 04:15:37;;;;;;;3.55;2.97;;;;;;;16.63;56.43;94693.41;5112790;28;20023;-77
2023/07/29 04:18:02;;;;;;;3.85;2.80;;;;;;;17.00;55.73;94692.06;5112731;28;20027;-76
2023/07/29 04:20:28;;;;;;;4.82;3.42;;;;;;;17.27;54.79;94696.03;5095618;28;20024;-76
2023/07/29 04:22:54;;;;;;;4.85;3.33;;;;;;;17.48;54.36;94698.91;5112740;28;20102;-76
2023/07/29 04:25:19;;;;;;;3.80;3.17;;;;;;;17.83;53.47;94702.84;5113939;28;20405;-77
2023/07/29 04:27:44;;;;;;;4.63;3.15;;;;;;;18.14;52.62;94699.34;5114168;28;20024;-77
2023/07/29 04:30:10;;;;;;;3.72;3.03;;;;;;;18.58;51.35;94690.72;5112532;28;20032;-79
2023/07/29 04:32:36;;;;;;;3.55;3.10;;;;;;;19.11;50.03;94674.91;5095712;28;20051;-78
2023/07/29 04:35:01;;;;;;;5.55;3.17;;;;;;;19.85;48.26;94687.97;5078488;28;20046;-77
2023/07/29 04:37:27;;;;;;;3.88;2.95;;;;;;;20.45;46.59;94686.69;5112267;28;20455;-77
2023/07/29 04:39:52;;;;;;;3.33;2.67;;;;;;;20.61;46.14;94687.44;5113453;28;20440;-77
2023/07/29 04:42:17;;;;;;;3.72;2.88;;;;;;;21.09;45.11;94663.78;5112205;28;20031;-77
2023/07/29 04:44:43;;;;;;;3.58;2.92;;;;;;;21.81;44.19;94686.25;5112388;28;20024;-78
2023/07/29 04:47:08;;;;;;;3.33;2.83;;;;;;;21.75;43.17;94673.84;5113350;28;20413;-77
2023/07/29 04:49:34;;;;;;;5.30;2.90;;;;;;;22.12;42.42;94693.66;5111990;28;20040;-77
2023/07/29 04:51:59;;;;;;;3.80;3.10;;;;;;;22.37;41.80;94686.00;5113295;28;20016;-78
2023/07/29 04:54:25;;;;;;;4.25;2.65;;;;;;;22.61;41.06;94673.16;5112561;28;20043;-77
2023/07/29 04:56:51;;;;;;;6.55;3.42;;;;;;;21.97;42.35;94693.81;5111881;28;20023;-77
2023/07/29 04:59:16;;;;;;;3.88;3.40;;;;;;;22.37;41.61;94699.22;5095123;28;20024;-78
2023/07/29 05:01:43;;;;;;;6.63;4.10;;;;;;;21.26;44.76;94701.28;5113172;28;20061;-78
2023/07/29 05:04:08;;;;;;;7.03;3.95;;;;;;;21.55;44.28;94705.50;5111832;28;20475;-77
2023/07/29 05:06:33;;;;;;;10.75;4.10;;;;;;;21.44;44.88;94703.41;5095081;28;20023;-77
2023/07/29 05:09:00;;;;;;;8.48;3.50;;;;;;;21.80;44.30;94697.84;5113019;28;20421;-78
2023/07/29 05:11:25;;;;;;;4.93;3.30;;;;;;;21.76;44.00;94701.91;5109813;28;20065;-78
2023/07/29 05:13:50;;;;;;;6.95;3.67;;;;;;;21.54;44.63;94712.59;5094745;28;20048;-78
2023/07/29 05:16:16;;;;;;;4.65;3.35;;;;;;;21.34;44.40;94709.84;5077538;28;20027;-78
2023/07/29 05:18:41;;;;;;;6.75;3.17;;;;;;;21.42;44.81;94706.22;5113077;28;20377;-78
2023/07/29 05:21:08;;;;;;;5.25;2.95;;;;;;;21.58;44.12;94713.03;5111645;28;20097;-78
2023/07/29 05:23:33;;;;;;;5.50;3.03;;;;;;;21.86;43.96;94719.00;5111613;28;20031;-78
2023/07/29 05:25:59;;;;;;;7.75;3.30;;;;;;;21.83;43.77;94722.06;5094539;28;20064;-78
2023/07/29 05:28:24;;;;;;;4.63;3.40;;;;;;;22.04;43.20;94718.47;5112261;28;20035;-78
2023/07/29 05:30:50;;;;;;;8.25;3.75;;;;;;;21.96;43.79;94707.25;5112486;28;20031;-78
2023/07/29 05:33:15;;;;;;;7.45;3.28;;;;;;;21.61;44.35;94718.72;5111310;28;20027;-78
2023/07/29 05:35:40;;;;;;;5.55;3.20;;;;;;;22.10;43.18;94716.84;5094111;28;20023;-78
2023/07/29 05:38:08;;;;;;;7.80;3.67;;;;;;;22.14;43.21;94710.13;5077256;28;20043;-78
2023/07/29 05:40:33;;;;;;;6.20;3.50;;;;;;;22.32;42.74;94722.81;5111207;28;20030;-77
2023/07/29 05:42:59;;;;;;;4.18;3.25;;;;;;;22.14;43.51;94726.00;5094039;28;20032;-77
2023/07/29 05:45:24;;;;;;;6.28;3.30;;;;;;;22.33;43.46;94731.56;5094062;28;20032;-78
2023/07/29 05:47:50;;;;;;;5.68;3.05;;;;;;;22.56;42.39;94725.88;5112412;28;20030;-77
2023/07/29 05:50:15;;;;;;;13.38;3.35;;;;;;;22.36;43.14;94728.50;5111021;28;20064;-78
2023/07/29 05:52:41;;;;;;;7.25;3.53;;;;;;;22.18;43.45;94737.84;5094184;28;20059;-77
2023/07/29 05:55:07;;;;;;;7.00;3.20;;;;;;;22.43;42.54;94732.81;5093685;28;20031;-77
2023/07/29 05:57:32;;;;;;;4.03;3.33;;;;;;;22.52;42.92;94733.41;5076934;28;20080;-78
2023/07/29 05:59:57;;;;;;;4.78;2.80;;;;;;;22.60;43.27;94713.88;5093793;28;20028;-78
2023/07/29 06:02:23;;;;;;;5.18;3.35;;;;;;;22.59;43.06;94715.69;5110680;28;20488;-78
2023/07/29 06:04:48;;;;;;;6.22;3.17;;;;;;;22.43;42.98;94726.69;5110574;28;20039;-78
2023/07/29 06:07:14;;;;;;;7.63;3.35;;;;;;;22.14;43.48;94720.72;5111080;28;20016;-78
2023/07/29 06:09:40;;;;;;;4.70;3.00;;;;;;;22.64;42.45;94726.50;5110440;28;20055;-78
2023/07/29 06:12:05;;;;;;;7.05;3.30;;;;;;;22.79;42.16;94722.81;5093865;28;20332;-78
2023/07/29 06:14:31;;;;;;;6.43;3.03;;;;;;;23.04;42.16;94720.38;5110339;28;20031;-77
2023/07/29 06:16:56;;;;;;;4.72;3.13;;;;;;;22.59;43.14;94715.69;5093519;28;20057;-77
2023/07/29 06:19:22;;;;;;;5.32;3.10;;;;;;;22.87;43.16;94717.31;5093509;28;20085;-78
2023/07/29 06:21:48;;;;;;;5.20;3.40;;;;;;;22.93;43.13;94711.22;5093437;28;20416;-77
2023/07/29 06:24:13;;;;;;;6.55;3.20;;;;;;;22.96;43.79;94711.66;5110336;28;20058;-78
2023/07/29 06:26:38;;;;;;;6.78;3.08;;;;;;;22.82;43.35;94717.13;5093440;28;20507;-78
2023/07/29 06:29:04;;;;;;;4.18;3.40;;;;;;;22.96;43.58;94702.88;5093437;28;20020;-80
2023/07/29 06:31:29;;;;;;;5.28;3.25;;;;;;;23.10;43.23;94712.44;5110530;28;20036;-77
2023/07/29 06:33:55;;;;;;;6.13;3.30;;;;;;;23.36;42.53;94703.59;5110411;28;20027;-77
2023/07/29 06:36:20;;;;;;;3.70;3.25;;;;;;;23.40;42.62;94707.47;5111451;28;20027;-77
2023/07/29 06:38:46;;;;;;;3.22;2.83;;;;;;;23.40;42.19;94693.38;5093522;28;20023;-78
2023/07/29 06:41:11;;;;;;;5.38;3.03;;;;;;;23.50;41.85;94700.91;5076320;28;20065;-78
2023/07/29 06:43:37;;;;;;;4.75;2.90;;;;;;;23.47;41.88;94685.44;5110274;28;20027;-78
2023/07/29 06:46:02;;;;;;;4.70;2.88;;;;;;;23.64;41.32;94690.03;5111384;28;20509;-78
2023/07/29 06:48:27;;;;;;;4.57;3.50;;;;;;;24.00;41.22;94682.53;5093307;28;20024;-78
2023/07/29 06:50:55;;;;;;;4.75;3.50;;;;;;;24.04;40.55;94683.72;5111248;28;20039;-77
2023/07/29 06:53:20;;;;;;;5.88;3.20;;;;;;;24.20;40.09;94690.38;5093343;28;20038;-77
2023/07/29 06:55:45;;;;;;;5.10;3.00;;;;;;;23.99;40.89;94673.78;5110186;28;20517;-77
2023/07/29 06:58:11;;;;;;;6.85;3.00;;;;;;;24.16;40.51;94686.53;5076281;28;20031;-77
2023/07/29 07:00:36;;;;;;;5.63;3.63;;;;;;;24.34;40.00;94672.53;5093008;28;20031;-77
2023/07/29 07:03:02;;;;;;;5.07;3.50;;;;;;;24.52;39.72;94681.41;5110180;28;20019;-77
2023/07/29 07:05:27;;;;;;;7.65;3.95;;;;;;;24.33;40.99;94677.03;5111382;28;20036;-77
2023/07/29 07:07:52;;;;;;;4.88;3.58;;;;;;;24.22;40.92;94683.03;5110074;28;20517;-77
2023/07/29 07:10:18;;;;;;;5.13;3.05;;;;;;;24.58;40.64;94678.91;5111060;28;20050;-78
2023/07/29 07:12:43;;;;;;;8.13;3.25;;;;;;;24.49;40.78;94676.53;5093213;28;20019;-77
2023/07/29 07:15:09;;;;;;;9.75;3.40;;;;;;;24.51;40.73;94682.41;5110052;28;20044;-77
2023/07/29 07:17:34;;;;;;;5.07;3.28;;;;;;;24.97;38.87;94686.50;5111424;28;20024;-77
2023/07/29 07:20:00;;;;;;;6.75;3.35;;;;;;;25.24;39.04;94682.78;5113817;28;20059;-77
2023/07/29 07:22:25;;;;;;;7.13;3.00;;;;;;;25.26;38.73;94660.28;5096579;28;20487;-77
2023/07/29 07:24:50;;;;;;;5.38;3.30;;;;;;;25.06;38.73;94687.03;5096857;28;20145;-78
2023/07/29 07:27:16;;;;;;;7.50;3.13;;;;;;;25.30;38.88;94685.41;5115029;28;20034;-77
2023/07/29 07:29:41;;;;;;;5.50;3.20;;;;;;;25.51;37.68;94680.66;5113461;28;20065;-78
2023/07/29 07:32:07;;;;;;;7.65;2.80;;;;;;;25.70;38.29;94682.25;5096529;28;20027;-77
2023/07/29 07:34:33;;;;;;;3.83;3.25;;;;;;;25.58;37.13;94679.56;5113559;28;20040;-77
2023/07/29 07:36:58;;;;;;;5.63;3.40;;;;;;;25.44;38.03;94677.28;5113641;28;20493;-78
2023/07/29 07:39:24;;;;;;;3.78;3.05;;;;;;;25.54;38.10;94682.88;5096222;28;20035;-78
2023/07/29 07:41:49;;;;;;;4.25;2.92;;;;;;;25.59;36.84;94680.34;5114693;28;20023;-77
2023/07/29 07:44:17;;;;;;;5.10;3.38;;;;;;;25.91;36.82;94677.50;5096497;28;20032;-77
2023/07/29 07:46:43;;;;;;;6.90;3.33;;;;;;;25.66;38.12;94674.94;5080250;28;20081;-78
2023/07/29 07:49:08;;;;;;;5.18;3.10;;;;;;;25.66;37.48;94669.63;5079216;28;20028;-77
2023/07/29 07:51:33;;;;;;;5.03;3.40;;;;;;;25.58;37.01;94668.09;5096452;28;20039;-78
2023/07/29 07:53:59;;;;;;;7.43;3.10;;;;;;;25.76;37.61;94681.34;5079542;28;20031;-78
2023/07/29 07:56:24;;;;;;;5.90;3.17;;;;;;;25.84;37.91;94683.75;5114437;28;20053;-77
2023/07/29 07:58:49;;;;;;;4.97;2.80;;;;;;;26.17;36.83;94677.16;5114249;28;20028;-78
2023/07/29 08:01:15;;;;;;;4.78;2.85;;;;;;;26.45;36.70;94678.38;5096005;28;20046;-78
2023/07/29 08:03:40;;;;;;;4.57;3.00;;;;;;;26.33;36.27;94674.88;5113157;28;20550;-78
2023/07/29 08:06:06;;;;;;;7.93;3.05;;;;;;;26.77;35.21;94675.44;5095901;28;20039;-78
2023/07/29 08:08:31;;;;;;;6.13;3.25;;;;;;;26.36;35.32;94679.75;5112731;28;20058;-78
2023/07/29 08:10:57;;;;;;;4.57;3.13;;;;;;;26.32;35.60;94670.59;5113143;28;20504;-77
2023/07/29 08:13:25;;;;;;;5.47;3.30;;;;;;;26.24;36.63;94674.38;5095485;28;20475;-78
2023/07/29 08:15:51;;;;;;;5.22;3.75;;;;;;;26.18;37.11;94683.28;5114002;28;20034;-78
2023/07/29 08:18:17;;;;;;;7.13;3.13;;;;;;;26.25;36.06;94668.84;5078981;28;20055;-78
2023/07/29 08:20:57;;;;;;;6.40;3.00;;;;;;;26.58;36.35;94672.88;5095884;28;20505;-77
2023/07/29 08:23:24;;;;;;;6.03;3.15;;;;;;;26.62;35.17;94679.34;5096568;28;20118;-78
2023/07/29 08:25:53;;;;;;;4.68;2.58;;;;;;;26.35;34.79;94678.13;5112597;28;20031;-77
2023/07/29 08:28:19;;;;;;;3.80;2.80;;;;;;;26.81;34.82;94676.59;5078202;28;20581;-78
2023/07/29 08:30:44;;;;;;;5.80;2.70;;;;;;;27.02;34.25;94672.53;5094960;28;20027;-78
2023/07/29 08:33:09;;;;;;;3.33;2.42;;;;;;;27.05;34.45;94651.56;5112711;28;20510;-78
2023/07/29 08:35:35;;;;;;;3.17;2.60;;;;;;;26.94;33.53;94673.69;5113861;28;20035;-78
2023/07/29 08:38:00;;;;;;;4.55;2.70;;;;;;;26.92;33.18;94667.81;5113833;28;20031;-77
2023/07/29 08:40:28;;;;;;;5.57;2.40;;;;;;;26.94;33.82;94657.69;5112498;28;20489;-78
2023/07/29 08:42:53;;;;;;;3.60;2.75;;;;;;;27.27;33.07;94666.97;5095649;28;20402;-78
2023/07/29 08:45:19;;;;;;;5.55;2.30;;;;;;;27.03;32.40;94661.66;5113566;28;20034;-78
2023/07/29 08:47:44;;;;;;;3.22;2.38;;;;;;;26.98;32.94;94653.53;5095075;28;20038;-79
2023/07/29 08:50:09;;;;;;;7.65;2.80;;;;;;;27.20;32.05;94669.78;5113520;28;20028;-78
2023/07/29 08:52:35;;;;;;;3.13;2.25;;;;;;;27.17;31.62;94660.41;5113687;28;20032;-78
2023/07/29 08:55:00;;;;;;;4.03;1.85;;;;;;;27.03;30.92;94642.19;5095266;28;20037;-78
2023/07/29 08:57:26;;;;;;;3.58;2.30;;;;;;;26.99;31.58;94649.81;5111926;28;20492;-78
2023/07/29 08:59:51;;;;;;;4.18;2.20;;;;;;;27.36;30.85;94641.59;5095143;28;20036;-78
2023/07/29 09:02:17;;;;;;;3.35;1.85;;;;;;;27.29;31.18;94654.22;5095189;28;20031;-78
2023/07/29 09:04:43;;;;;;;2.85;1.48;;;;;;;27.30;30.20;94645.19;5112006;28;20516;-79
2023/07/29 09:07:08;;;;;;;2.20;1.45;;;;;;;27.83;27.92;94646.78;5112950;28;20035;-78
2023/07/29 09:09:34;;;;;;;2.42;1.60;;;;;;;27.80;27.68;94648.09;5077737;28;20063;-78
2023/07/29 09:11:59;;;;;;;3.20;1.70;;;;;;;28.07;27.66;94647.50;5094916;28;20024;-78
2023/07/29 09:14:24;;;;;;;2.55;1.40;;;;;;;28.05;27.78;94639.75;5111715;28;20032;-78
2023/07/29 09:16:50;;;;;;;4.07;1.73;;;;;;;28.02;28.44;94640.19;5111422;28;20064;-78
2023/07/29 09:19:15;;;;;;;3.78;1.95;;;;;;;27.73;28.72;94642.03;5094614;28;20042;-78
2023/07/29 09:21:41;;;;;;;5.13;1.75;;;;;;;27.78;29.15;94641.34;5111581;28;20034;-79
2023/07/29 09:24:07;;;;;;;1.85;1.17;;;;;;;27.82;27.36;94637.97;5095030;28;20036;-78
2023/07/29 09:26:32;;;;;;;3.00;1.30;;;;;;;27.63;27.51;94631.97;5094468;28;20053;-78
2023/07/29 09:28:58;;;;;;;1.25;0.82;;;;;;;27.55;26.36;94629.72;5112938;28;20614;-78
2023/07/29 09:31:28;;;;;;;2.70;1.65;;;;;;;27.77;28.29;94626.38;5094510;28;20028;-77
2023/07/29 09:34:00;;;;;;;2.60;1.73;;;;;;;28.17;28.45;94621.00;5113108;28;20019;-78
2023/07/29 09:36:26;;;;;;;3.47;1.80;;;;;;;27.86;28.28;94622.31;5094346;28;20043;-78
2023/07/29 09:38:55;;;;;;;3.10;1.70;;;;;;;28.03;28.11;94623.16;5094278;28;20103;-79
2023/07/29 09:41:24;;;;;;;3.42;1.73;;;;;;;28.51;28.30;94616.50;5111098;28;20093;-78
2023/07/29 09:43:55;;;;;;;5.03;1.83;;;;;;;28.26;28.00;94622.19;5111351;28;20058;-79
2023/07/29 09:46:22;;;;;;;2.58;1.38;;;;;;;27.55;27.47;94620.88;5111046;28;20035;-78
2023/07/29 09:48:50;;;;;;;3.70;1.70;;;;;;;28.15;27.86;94612.41;5094058;28;20066;-78
2023/07/29 09:51:15;;;;;;;3.58;1.20;;;;;;;28.16;27.07;94615.88;5094321;28;20040;-79
2023/07/29 09:53:45;;;;;;;3.88;1.38;;;;;;;28.18;27.98;94613.78;5110879;28;20023;-78
2023/07/29 09:56:10;;;;;;;2.83;1.40;;;;;;;28.22;26.88;94585.53;5110922;28;20035;-78
2023/07/29 09:58:38;;;;;;;2.58;1.30;;;;;;;28.59;26.92;94604.59;5110705;28;20112;-79
2023/07/29 10:01:04;;;;;;;2.83;1.48;;;;;;;28.58;28.00;94604.81;5110835;28;20027;-78
2023/07/29 10:03:29;;;;;;;5.03;1.67;;;;;;;28.21;27.91;94607.97;5110818;28;20043;-78
2023/07/29 10:05:55;;;;;;;3.00;1.85;;;;;;;28.41;27.45;94599.47;5110808;28;20566;-79
2023/07/29 10:08:21;;;;;;;2.92;1.52;;;;;;;28.72;27.34;94596.25;5110158;28;20047;-79
2023/07/29 10:10:46;;;;;;;4.00;1.40;;;;;;;29.10;26.91;94591.16;5093728;28;20038;-78
2023/07/29 10:13:11;;;;;;;4.47;1.30;;;;;;;28.88;26.01;94586.56;5110719;28;20020;-78
2023/07/29 10:15:37;;;;;;;3.85;1.40;;;;;;;28.67;26.45;94563.31;5093671;28;20421;-79
2023/07/29 10:18:03;;;;;;;1.88;1.17;;;;;;;28.73;26.74;94589.03;5110477;28;20023;-78
2023/07/29 10:20:30;;;;;;;2.75;1.30;;;;;;;28.78;26.92;94588.28;5093683;28;20031;-78
2023/07/29 10:22:55;;;;;;;3.35;1.20;;;;;;;28.55;26.34;94568.72;5093806;28;20051;-78
2023/07/29 10:25:24;;;;;;;2.70;1.08;;;;;;;28.64;25.90;94583.31;5093508;28;20039;-78
2023/07/29 10:27:53;;;;;;;8.02;1.40;;;;;;;28.78;25.79;94578.44;5093253;28;20539;-79
2023/07/29 10:30:18;;;;;;;2.47;1.17;;;;;;;28.58;25.83;94568.22;5093531;28;20063;-78
2023/07/29 10:32:44;;;;;;;2.35;1.10;;;;;;;28.70;26.81;94563.59;5110437;28;20039;-78
2023/07/29 10:35:13;;;;;;;11.43;1.50;;;;;;;28.85;26.17;94554.19;5110309;28;20036;-77
2023/07/29 10:37:39;;;;;;;2.63;1.10;;;;;;;28.90;25.87;94557.72;5110140;28;20028;-77
2023/07/29 10:40:06;;;;;;;3.20;1.10;;;;;;;28.86;26.31;94547.78;5110176;28;20039;-79
2023/07/29 10:42:32;;;;;;;2.05;1.10;;;;;;;28.68;25.65;94547.00;5076293;28;20050;-79
2023/07/29 10:44:57;;;;;;;4.20;1.30;;;;;;;28.73;26.39;94547.09;5110263;28;20027;-79
2023/07/29 10:47:24;;;;;;;3.08;1.15;;;;;;;28.82;27.20;94547.47;5110055;28;20035;-79
2023/07/29 10:49:54;;;;;;;2.55;1.30;;;;;;;28.89;26.44;94549.94;5093339;28;20036;-79
2023/07/29 10:52:30;;;;;;;1.85;1.00;;;;;;;29.06;26.75;94545.41;5111155;28;20531;-79
2023/07/29 10:54:55;;;;;;;3.35;1.08;;;;;;;28.91;26.45;94535.28;5115688;28;20023;-78
2023/07/29 10:57:34;;;;;;;1.67;0.90;;;;;;;28.89;26.62;94532.06;5097220;28;20043;-79
2023/07/29 10:59:59;;;;;;;2.13;1.30;;;;;;;29.11;25.42;94531.28;5097603;28;20178;-78
2023/07/29 11:02:29;;;;;;;2.40;1.15;;;;;;;29.20;25.96;94524.44;5097374;28;20083;-79
2023/07/29 11:04:54;;;;;;;3.53;1.10;;;;;;;29.03;25.71;94531.69;5097244;28;20039;-78
2023/07/29 11:07:26;;;;;;;1.70;0.95;;;;;;;29.28;26.08;94531.19;5115044;28;20035;-78
2023/07/29 11:09:51;;;;;;;1.83;0.80;;;;;;;29.30;25.05;94531.75;5115339;28;20547;-78
2023/07/29 11:12:38;;;;;;;2.10;0.80;;;;;;;29.49;24.60;94533.03;5115174;27;20036;-78
2023/07/29 11:15:04;;;;;;;1.63;0.80;;;;;;;29.48;24.40;94523.41;5115103;27;20443;-78
2023/07/29 11:17:31;;;;;;;1.20;0.68;;;;;;;29.53;24.71;94523.47;5113835;28;20084;-78
2023/07/29 11:19:56;;;;;;;2.33;0.93;;;;;;;29.57;23.55;94521.09;5080344;28;20034;-77
2023/07/29 11:22:22;;;;;;;1.50;0.90;;;;;;;29.64;24.82;94524.38;5096700;28;20490;-79
2023/07/29 11:24:47;;;;;;;2.03;1.10;;;;;;;29.39;24.03;94495.47;5096882;28;20024;-79
2023/07/29 11:27:13;;;;;;;3.35;1.13;;;;;;;29.44;24.97;94532.97;5113735;28;20035;-78
2023/07/29 11:29:38;;;;;;;2.13;0.80;;;;;;;29.38;24.51;94523.28;5079567;28;20542;-78